Time;durP1;ratioP1;P1;durP2;ratioP2;P2;SDS_P1;SDS_P2;PMS_P1;PMS_P2;Temp;Humidity;BMP_temperature;BMP_pressure;BME280_temperature;BME280_humidity;BME280_pressure;Samples;Min_cycle;Max_cycle;Signal;HPM_P1;HPM_P2
2021/12/06 00:00:32;;;;;;;11.07;7.30;;;;;;;2.87;100.00;100305.41;694689;28;1178;-54
2021/12/06 00:01:08;;;;;;;9.40;6.53;;;;;;;2.90;100.00;100302.88;692222;28;1107;-54
2021/12/06 00:01:39;;;;;;;9.60;6.65;;;;;;;2.92;100.00;100296.03;690998;28;5163;-52
2021/12/06 00:02:12;;;;;;;13.38;6.88;;;;;;;2.92;100.00;100305.50;689087;28;1274;-54
2021/12/06 00:02:33;;;;;;;9.65;7.10;;;;;;;2.92;100.00;100301.19;691160;28;2372;-55
2021/12/06 00:02:57;;;;;;;9.00;6.70;;;;;;;2.92;100.00;100308.06;691816;28;2055;-55
2021/12/06 00:03:24;;;;;;;8.93;6.47;;;;;;;2.88;100.00;100310.59;689724;28;2209;-53
2021/12/06 00:03:54;;;;;;;9.07;6.45;;;;;;;2.85;100.00;100299.31;690997;28;1217;-54
2021/12/06 00:04:18;;;;;;;9.52;6.80;;;;;;;2.82;100.00;100301.84;686897;28;4357;-53
2021/12/06 00:04:40;;;;;;;9.55;6.55;;;;;;;2.80;100.00;100306.13;687841;28;1362;-54
2021/12/06 00:05:00;;;;;;;8.73;6.57;;;;;;;2.78;100.00;100302.63;688444;28;1293;-53
2021/12/06 00:05:23;;;;;;;9.33;6.63;;;;;;;2.78;100.00;100308.66;687942;28;1419;-53
2021/12/06 00:05:44;;;;;;;10.10;6.40;;;;;;;2.76;100.00;100310.34;689389;28;1173;-56
2021/12/06 00:06:05;;;;;;;10.43;6.90;;;;;;;2.76;100.00;100309.47;690140;28;1137;-52
2021/12/06 00:06:27;;;;;;;11.13;6.97;;;;;;;2.76;100.00;100306.91;691295;28;980;-54
2021/12/06 00:06:53;;;;;;;11.00;6.70;;;;;;;2.74;100.00;100309.41;692235;28;1115;-53
2021/12/06 00:07:17;;;;;;;9.50;6.95;;;;;;;2.75;100.00;100302.56;691658;28;4578;-54
2021/12/06 00:07:38;;;;;;;8.90;6.82;;;;;;;2.72;100.00;100311.97;691121;28;1055;-52
2021/12/06 00:07:59;;;;;;;9.30;6.90;;;;;;;2.71;100.00;100307.66;692074;28;1250;-53
2021/12/06 00:08:19;;;;;;;10.02;6.78;;;;;;;2.70;100.00;100305.91;692035;28;1261;-52
2021/12/06 00:08:40;;;;;;;10.68;7.00;;;;;;;2.68;100.00;100307.56;691684;28;1224;-54
2021/12/06 00:09:04;;;;;;;11.07;7.30;;;;;;;2.67;100.00;100308.44;691636;28;1254;-53
2021/12/06 00:09:27;;;;;;;10.10;7.25;;;;;;;2.68;100.00;100312.75;690111;28;1413;-56
2021/12/06 00:09:47;;;;;;;9.45;6.80;;;;;;;2.67;100.00;100308.44;691780;28;1973;-57
2021/12/06 00:10:09;;;;;;;9.88;6.78;;;;;;;2.68;100.00;100310.16;689423;28;4531;-59
2021/12/06 00:10:30;;;;;;;9.70;6.80;;;;;;;2.68;100.00;100310.16;691738;28;1270;-55
2021/12/06 00:10:51;;;;;;;9.98;6.82;;;;;;;2.69;100.00;100311.91;693157;28;1071;-53
2021/12/06 00:11:13;;;;;;;9.82;6.85;;;;;;;2.71;100.00;100318.00;693791;28;1117;-55
2021/12/06 00:11:34;;;;;;;9.15;6.70;;;;;;;2.72;100.00;100306.81;691163;28;1060;-53
2021/12/06 00:11:59;;;;;;;9.15;6.75;;;;;;;2.71;100.00;100315.41;692378;28;1129;-53
2021/12/06 00:12:20;;;;;;;9.40;6.70;;;;;;;2.71;100.00;100309.34;693296;28;1092;-52
2021/12/06 00:12:42;;;;;;;9.95;7.05;;;;;;;2.69;100.00;100304.16;691862;28;1871;-53
2021/12/06 00:13:03;;;;;;;10.65;7.05;;;;;;;2.68;100.00;100312.75;690749;28;4426;-53
2021/12/06 00:13:24;;;;;;;10.63;6.87;;;;;;;2.68;100.00;100307.56;692137;28;1316;-56
2021/12/06 00:13:47;;;;;;;9.90;6.90;;;;;;;2.67;100.00;100310.13;688543;28;836;-52
2021/12/06 00:14:07;;;;;;;8.65;7.00;;;;;;;2.66;100.00;100309.28;688106;28;1143;-52
2021/12/06 00:14:31;;;;;;;9.23;7.18;;;;;;;2.66;100.00;100308.38;686710;28;1013;-55
2021/12/06 00:14:52;;;;;;;9.45;6.82;;;;;;;2.66;100.00;100309.28;686837;28;1064;-53
2021/12/06 00:15:13;;;;;;;9.23;6.85;;;;;;;2.67;100.00;100310.13;688803;28;1542;-53
2021/12/06 00:15:33;;;;;;;9.63;7.05;;;;;;;2.67;100.00;100312.72;689816;28;4038;-55
2021/12/06 00:15:55;;;;;;;10.03;7.27;;;;;;;2.65;100.00;100310.09;689153;28;1274;-53
2021/12/06 00:16:19;;;;;;;9.07;7.10;;;;;;;2.66;100.00;100305.78;689378;28;5049;-55
2021/12/06 00:16:39;;;;;;;10.13;7.00;;;;;;;2.66;100.00;100314.44;689103;28;1119;-52
2021/12/06 00:17:04;;;;;;;9.93;7.17;;;;;;;2.69;100.00;100305.88;688257;28;1910;-54
2021/12/06 00:17:24;;;;;;;9.98;7.07;;;;;;;2.71;100.00;100309.34;686948;28;1064;-55
2021/12/06 00:17:45;;;;;;;10.15;7.15;;;;;;;2.72;100.00;100311.97;688375;28;1210;-56
2021/12/06 00:18:05;;;;;;;10.03;7.43;;;;;;;2.73;100.00;100305.97;689246;28;1164;-55
2021/12/06 00:18:26;;;;;;;10.43;7.70;;;;;;;2.76;100.00;100312.06;689683;28;3359;-52
2021/12/06 00:18:48;;;;;;;12.67;8.57;;;;;;;2.73;100.00;100305.97;692026;28;1070;-53
2021/12/06 00:19:08;;;;;;;13.60;8.93;;;;;;;2.72;100.00;100314.56;691580;28;4461;-52
2021/12/06 00:19:29;;;;;;;14.00;9.33;;;;;;;2.71;100.00;100310.25;691932;28;1266;-52
2021/12/06 00:19:50;;;;;;;11.23;8.18;;;;;;;2.71;100.00;100311.94;691430;28;1088;-52
2021/12/06 00:20:12;;;;;;;10.93;8.45;;;;;;;2.72;100.00;100311.09;692763;28;1063;-55
2021/12/06 00:20:32;;;;;;;12.00;8.63;;;;;;;2.75;100.00;100300.84;691767;28;2590;-54
2021/12/06 00:20:53;;;;;;;13.80;9.53;;;;;;;2.78;100.00;100312.94;692573;28;977;-56
2021/12/06 00:21:14;;;;;;;12.93;9.60;;;;;;;2.80;100.00;100300.97;692043;28;3720;-54
2021/12/06 00:21:35;;;;;;;12.60;9.40;;;;;;;2.81;100.00;100310.44;691557;28;1311;-52
2021/12/06 00:21:59;;;;;;;13.43;9.05;;;;;;;2.80;100.00;100306.97;691633;28;4537;-52
2021/12/06 00:22:25;;;;;;;13.75;9.18;;;;;;;2.82;100.00;100309.59;692055;28;1130;-57
2021/12/06 00:22:46;;;;;;;13.35;9.85;;;;;;;2.80;100.00;100314.72;690508;28;1127;-57
2021/12/06 00:23:06;;;;;;;14.80;10.30;;;;;;;2.79;100.00;100312.97;691286;28;1075;-55
2021/12/06 00:23:27;;;;;;;12.25;9.13;;;;;;;2.80;100.00;100311.28;688954;28;1316;-52
2021/12/06 00:23:49;;;;;;;12.15;9.32;;;;;;;2.78;100.00;100310.38;686822;28;1617;-54
2021/12/06 00:24:09;;;;;;;13.63;10.00;;;;;;;2.77;100.00;100309.50;685929;28;3745;-54
2021/12/06 00:24:31;;;;;;;13.90;9.30;;;;;;;2.77;100.00;100312.09;683873;28;1125;-55
2021/12/06 00:24:54;;;;;;;14.02;9.30;;;;;;;2.78;100.00;100307.78;683456;28;1307;-52
2021/12/06 00:25:15;;;;;;;12.80;9.18;;;;;;;2.78;100.00;100315.53;683632;28;4704;-54
2021/12/06 00:25:35;;;;;;;14.10;9.50;;;;;;;2.77;100.00;100308.63;683798;28;1091;-52
2021/12/06 00:25:56;;;;;;;14.33;10.27;;;;;;;2.76;100.00;100314.63;684978;28;1072;-52
2021/12/06 00:26:17;;;;;;;14.45;10.77;;;;;;;2.75;100.00;100307.72;686739;28;1084;-53
2021/12/06 00:26:38;;;;;;;14.68;10.60;;;;;;;2.73;100.00;100308.56;688126;28;1115;-55
2021/12/06 00:26:59;;;;;;;16.17;11.70;;;;;;;2.73;100.00;100310.28;691590;28;3051;-54
2021/12/06 00:27:20;;;;;;;20.02;13.95;;;;;;;2.72;100.00;100305.94;691949;28;1339;-54
2021/12/06 00:27:41;;;;;;;19.52;13.77;;;;;;;2.70;100.00;100305.91;692009;28;1461;-53
2021/12/06 00:28:02;;;;;;;15.82;11.30;;;;;;;2.69;100.00;100306.75;691178;28;4595;-54
2021/12/06 00:28:23;;;;;;;16.70;11.40;;;;;;;2.70;100.00;100305.03;691867;28;1287;-54
2021/12/06 00:28:46;;;;;;;17.85;12.02;;;;;;;2.69;100.00;100304.16;688792;28;1239;-56
2021/12/06 00:29:06;;;;;;;16.27;11.73;;;;;;;2.71;100.00;100305.09;689734;28;1123;-53
2021/12/06 00:29:27;;;;;;;16.77;12.10;;;;;;;2.71;100.00;100305.09;688710;28;1093;-52
2021/12/06 00:29:48;;;;;;;18.13;12.38;;;;;;;2.72;100.00;100311.09;685839;28;3432;-55
2021/12/06 00:30:12;;;;;;;17.20;12.45;;;;;;;2.72;100.00;100319.72;688968;28;1909;-55
2021/12/06 00:30:32;;;;;;;18.45;13.10;;;;;;;2.71;100.00;100301.63;689324;28;1534;-55
2021/12/06 00:30:54;;;;;;;19.27;13.50;;;;;;;2.71;100.00;100305.09;691766;28;1203;-53
2021/12/06 00:31:15;;;;;;;19.73;13.50;;;;;;;2.69;100.00;100306.75;691969;28;4812;-54
2021/12/06 00:31:37;;;;;;;20.05;13.68;;;;;;;2.72;100.00;100308.53;687895;28;1156;-52
2021/12/06 00:31:57;;;;;;;19.83;13.20;;;;;;;2.73;100.00;100316.31;686175;28;1083;-52
2021/12/06 00:32:19;;;;;;;17.98;12.77;;;;;;;2.75;100.00;100308.59;682776;28;1651;-55
2021/12/06 00:32:40;;;;;;;14.90;10.65;;;;;;;2.78;100.00;100312.94;682696;28;3448;-52
2021/12/06 00:33:01;;;;;;;10.38;8.60;;;;;;;2.80;100.00;100311.28;683571;28;1403;-55
2021/12/06 00:33:22;;;;;;;11.60;8.83;;;;;;;2.82;100.00;100309.59;686229;28;1537;-54
2021/12/06 00:33:43;;;;;;;13.30;9.27;;;;;;;2.83;100.00;100301.88;684569;28;1101;-54
2021/12/06 00:34:10;;;;;;;11.55;8.88;;;;;;;2.84;100.00;100302.78;686916;28;4594;-55
2021/12/06 00:34:34;;;;;;;11.38;8.90;;;;;;;2.86;100.00;100301.06;684020;28;1076;-55
2021/12/06 00:34:55;;;;;;;11.27;8.55;;;;;;;2.87;100.00;100301.09;686321;28;1339;-53
2021/12/06 00:35:22;;;;;;;10.82;8.20;;;;;;;2.89;100.00;100298.53;688262;28;3124;-53
2021/12/06 00:35:43;;;;;;;9.63;7.57;;;;;;;2.90;100.00;100302.88;691330;28;1299;-57
2021/12/06 00:36:07;;;;;;;8.55;7.20;;;;;;;2.90;100.00;100306.31;691847;28;1189;-57
2021/12/06 00:36:29;;;;;;;9.23;7.30;;;;;;;2.92;100.00;100305.50;690720;28;1175;-53
2021/12/06 00:37:04;;;;;;;9.27;7.22;;;;;;;2.95;100.00;100301.28;689868;28;1123;-53
2021/12/06 00:37:33;;;;;;;8.75;7.00;;;;;;;2.97;100.00;100309.06;686073;28;6140;-54
2021/12/06 00:38:00;;;;;;;9.05;7.00;;;;;;;2.96;100.00;100308.16;688157;28;1136;-54
2021/12/06 00:38:21;;;;;;;9.90;7.18;;;;;;;2.98;100.00;100306.50;688749;28;2182;-56
2021/12/06 00:38:44;;;;;;;9.82;7.28;;;;;;;2.99;100.00;100304.78;689097;28;1286;-53
2021/12/06 00:39:09;;;;;;;9.05;7.03;;;;;;;2.97;100.00;100306.47;689048;28;4190;-53
2021/12/06 00:39:29;;;;;;;9.15;7.18;;;;;;;2.95;100.00;100306.44;690263;28;1935;-53
2021/12/06 00:39:53;;;;;;;9.52;7.00;;;;;;;2.94;100.00;100309.84;690931;28;1123;-52
2021/12/06 00:40:13;;;;;;;9.43;7.30;;;;;;;2.94;100.00;100319.31;691070;28;4514;-55
2021/12/06 00:40:38;;;;;;;9.37;7.10;;;;;;;2.93;100.00;100315.00;689712;28;1338;-55
2021/12/06 00:40:59;;;;;;;9.43;7.00;;;;;;;2.92;100.00;100311.50;690370;28;1863;-54
2021/12/06 00:41:21;;;;;;;10.00;7.05;;;;;;;2.91;100.00;100312.38;688597;28;3113;-52
2021/12/06 00:41:41;;;;;;;9.68;7.15;;;;;;;2.92;100.00;100313.25;691783;28;1285;-53
2021/12/06 00:42:02;;;;;;;10.20;7.17;;;;;;;2.92;100.00;100314.09;690807;28;1356;-53
2021/12/06 00:42:28;;;;;;;9.15;7.20;;;;;;;2.97;100.00;100317.66;688499;28;1640;-55
2021/12/06 00:42:49;;;;;;;9.20;7.00;;;;;;;3.01;100.00;100321.19;686414;28;1418;-53
2021/12/06 00:43:11;;;;;;;9.40;7.03;;;;;;;3.04;100.00;100314.34;689152;28;4655;-53
2021/12/06 00:43:31;;;;;;;8.45;6.85;;;;;;;3.06;100.00;100309.25;687873;28;1052;-55
2021/12/06 00:43:52;;;;;;;8.38;6.53;;;;;;;3.07;100.00;100316.13;686428;28;3182;-56
2021/12/06 00:44:14;;;;;;;9.93;7.10;;;;;;;3.06;100.00;100315.28;686459;28;1983;-55
2021/12/06 00:44:34;;;;;;;9.45;7.00;;;;;;;3.04;100.00;100327.25;686373;28;1503;-55
2021/12/06 00:44:54;;;;;;;8.35;6.72;;;;;;;3.03;100.00;100320.38;686415;28;1328;-53
2021/12/06 00:45:15;;;;;;;8.87;6.93;;;;;;;3.01;100.00;100319.47;686668;28;1276;-55
2021/12/06 00:45:37;;;;;;;9.18;6.95;;;;;;;3.02;100.00;100322.94;683228;28;1294;-54
2021/12/06 00:45:57;;;;;;;9.18;6.60;;;;;;;3.00;100.00;100320.28;687879;28;4387;-55
2021/12/06 00:46:19;;;;;;;8.57;6.70;;;;;;;3.01;100.00;100322.03;689458;28;1295;-53
2021/12/06 00:46:40;;;;;;;9.18;6.95;;;;;;;3.00;100.00;100322.88;685109;28;1889;-52
2021/12/06 00:47:00;;;;;;;8.30;6.70;;;;;;;3.00;100.00;100325.47;683712;28;3452;-56
2021/12/06 00:47:21;;;;;;;8.30;6.90;;;;;;;3.01;100.00;100321.19;683342;28;1437;-55
2021/12/06 00:47:41;;;;;;;8.13;6.53;;;;;;;3.01;100.00;100327.22;683382;28;1421;-54
2021/12/06 00:48:02;;;;;;;9.30;7.07;;;;;;;3.02;100.00;100328.09;682353;28;1323;-53
2021/12/06 00:48:22;;;;;;;9.15;7.25;;;;;;;3.00;100.00;100335.78;686421;28;1363;-52
2021/12/06 00:48:43;;;;;;;9.53;7.17;;;;;;;2.99;100.00;100323.75;687032;28;1097;-55
2021/12/06 00:49:05;;;;;;;9.57;6.88;;;;;;;2.98;100.00;100332.31;689337;28;4389;-55
2021/12/06 00:49:25;;;;;;;9.45;7.30;;;;;;;2.98;100.00;100326.28;688794;28;2024;-53
2021/12/06 00:49:47;;;;;;;8.48;7.00;;;;;;;2.98;100.00;100324.56;689317;28;3650;-53
2021/12/06 00:50:08;;;;;;;8.30;6.53;;;;;;;2.98;100.00;100327.16;689117;28;1616;-53
2021/12/06 00:50:33;;;;;;;8.48;6.88;;;;;;;2.97;100.00;100320.25;690557;28;1002;-54
2021/12/06 00:50:54;;;;;;;9.88;7.00;;;;;;;2.94;100.00;100327.94;689471;28;1182;-51
2021/12/06 00:51:15;;;;;;;9.73;7.22;;;;;;;2.94;100.00;100325.34;690848;28;1310;-51
2021/12/06 00:51:37;;;;;;;8.27;7.00;;;;;;;2.92;100.00;100323.56;688154;28;1054;-54
2021/12/06 00:51:58;;;;;;;8.52;6.93;;;;;;;2.90;100.00;100324.41;687410;28;4461;-53
2021/12/06 00:52:20;;;;;;;8.57;6.95;;;;;;;2.90;100.00;100328.69;687758;28;3135;-50
2021/12/06 00:52:41;;;;;;;8.68;6.90;;;;;;;2.89;100.00;100321.78;688900;28;3534;-50
2021/12/06 00:53:02;;;;;;;9.30;6.90;;;;;;;2.88;100.00;100325.19;692428;28;1328;-52
2021/12/06 00:53:23;;;;;;;8.77;6.97;;;;;;;2.90;100.00;100323.53;690130;28;1574;-53
2021/12/06 00:53:44;;;;;;;8.45;6.75;;;;;;;2.89;100.00;100327.84;688930;28;1209;-55
2021/12/06 00:54:04;;;;;;;8.63;6.90;;;;;;;2.90;100.00;100323.53;689005;28;1126;-53
2021/12/06 00:54:25;;;;;;;8.73;6.82;;;;;;;2.88;100.00;100330.38;688719;28;1175;-52
2021/12/06 00:54:46;;;;;;;9.35;6.93;;;;;;;2.85;100.00;100327.72;687634;28;1233;-54
2021/12/06 00:55:09;;;;;;;9.90;7.30;;;;;;;2.83;100.00;100326.84;684034;28;4831;-57
2021/12/06 00:55:32;;;;;;;9.75;7.28;;;;;;;2.81;100.00;100323.34;681683;28;3766;-53
2021/12/06 00:55:52;;;;;;;9.85;7.30;;;;;;;2.81;100.00;100329.38;685260;28;1260;-54
2021/12/06 00:56:13;;;;;;;8.23;7.00;;;;;;;2.81;100.00;100325.91;685594;28;1223;-55
2021/12/06 00:56:35;;;;;;;8.85;6.82;;;;;;;2.81;100.00;100326.81;684879;28;1421;-54
2021/12/06 00:56:56;;;;;;;9.65;7.28;;;;;;;2.83;100.00;100321.66;684877;28;1143;-53
2021/12/06 00:57:17;;;;;;;9.38;7.10;;;;;;;2.83;100.00;100329.41;687967;28;1918;-53
2021/12/06 00:57:38;;;;;;;9.10;7.05;;;;;;;2.81;100.00;100326.81;686612;28;1352;-52
2021/12/06 00:57:58;;;;;;;9.80;6.95;;;;;;;2.81;100.00;100325.91;684901;28;4354;-51
2021/12/06 00:58:19;;;;;;;8.95;6.72;;;;;;;2.80;100.00;100332.81;686418;28;3607;-52
2021/12/06 00:58:40;;;;;;;9.85;6.97;;;;;;;2.79;100.00;100323.31;686188;28;1200;-52
2021/12/06 00:59:00;;;;;;;12.82;7.43;;;;;;;2.77;100.00;100329.28;687407;28;1398;-51
2021/12/06 00:59:21;;;;;;;11.67;7.33;;;;;;;2.72;100.00;100329.19;686713;28;1160;-53
2021/12/06 00:59:42;;;;;;;10.25;7.25;;;;;;;2.69;100.00;100327.41;689559;28;1195;-55
2021/12/06 01:00:12;;;;;;;10.95;7.07;;;;;;;2.65;100.00;100329.88;688633;28;1244;-53
2021/12/06 01:00:41;;;;;;;9.15;7.43;;;;;;;2.65;100.00;100332.47;688570;28;1255;-53
2021/12/06 01:01:05;;;;;;;8.75;6.97;;;;;;;2.63;100.00;100329.84;693445;28;4657;-52
2021/12/06 01:01:25;;;;;;;9.73;7.20;;;;;;;2.64;100.00;100330.72;693030;28;2097;-52
2021/12/06 01:01:46;;;;;;;9.25;7.45;;;;;;;2.66;100.00;100334.19;693428;28;1140;-52
2021/12/06 01:02:08;;;;;;;9.73;7.40;;;;;;;2.69;100.00;100327.41;691512;28;1253;-55
2021/12/06 01:02:29;;;;;;;9.27;7.22;;;;;;;2.73;100.00;100329.22;691769;28;1243;-53
2021/12/06 01:02:50;;;;;;;8.80;6.83;;;;;;;2.78;100.00;100331.03;688418;28;1036;-52
2021/12/06 01:03:14;;;;;;;9.60;6.90;;;;;;;2.79;100.00;100325.03;686691;28;1212;-56
2021/12/06 01:03:38;;;;;;;9.10;6.55;;;;;;;2.78;100.00;100325.84;685027;28;3133;-51
2021/12/06 01:03:59;;;;;;;8.98;7.13;;;;;;;2.78;100.00;100328.44;682490;28;4544;-51
2021/12/06 01:04:20;;;;;;;9.48;7.32;;;;;;;2.78;100.00;100325.84;688402;28;1362;-52
2021/12/06 01:04:42;;;;;;;10.95;7.90;;;;;;;2.76;100.00;100324.97;689723;28;1226;-53
2021/12/06 01:05:04;;;;;;;10.15;7.07;;;;;;;2.74;100.00;100327.47;689772;28;1198;-54
2021/12/06 01:05:25;;;;;;;9.02;6.95;;;;;;;2.72;100.00;100336.94;690548;28;2051;-51
2021/12/06 01:05:46;;;;;;;9.63;7.15;;;;;;;2.70;100.00;100331.72;685648;28;1172;-54
2021/12/06 01:06:09;;;;;;;27.65;13.13;;;;;;;2.68;100.00;100330.81;682822;28;1135;-52
2021/12/06 01:06:31;;;;;;;48.35;19.67;;;;;;;2.69;100.00;100335.13;681129;28;1983;-51
2021/12/06 01:06:51;;;;;;;48.95;21.17;;;;;;;2.70;100.00;100333.41;683475;28;3814;-52
2021/12/06 01:07:12;;;;;;;46.80;21.42;;;;;;;2.69;100.00;100329.13;682803;28;4524;-54
2021/12/06 01:07:33;;;;;;;48.78;21.25;;;;;;;2.69;100.00;100329.13;685358;28;1067;-53
2021/12/06 01:07:54;;;;;;;51.30;21.77;;;;;;;2.69;100.00;100336.88;686847;28;1348;-52
2021/12/06 01:08:15;;;;;;;55.95;22.63;;;;;;;2.66;100.00;100326.44;686552;28;881;-52
2021/12/06 01:08:37;;;;;;;56.88;22.75;;;;;;;2.62;100.00;100333.28;685166;28;1190;-55
2021/12/06 01:08:58;;;;;;;55.25;21.70;;;;;;;2.60;100.00;100334.06;684098;28;1037;-56
2021/12/06 01:09:18;;;;;;;50.07;19.80;;;;;;;2.58;100.00;100334.03;683802;28;1854;-54
2021/12/06 01:09:41;;;;;;;41.28;17.48;;;;;;;2.59;100.00;100328.03;683212;28;2451;-53
2021/12/06 01:10:04;;;;;;;37.30;17.30;;;;;;;2.61;100.00;100335.81;682281;28;4474;-52
2021/12/06 01:10:27;;;;;;;43.35;18.77;;;;;;;2.65;100.00;100330.75;685796;28;1986;-55
2021/12/06 01:10:50;;;;;;;41.88;18.88;;;;;;;2.64;100.00;100335.88;687654;28;957;-53
2021/12/06 01:11:11;;;;;;;44.55;18.08;;;;;;;2.62;100.00;100341.00;691025;28;1107;-52
2021/12/06 01:11:31;;;;;;;46.65;18.48;;;;;;;2.60;100.00;100344.38;690017;28;983;-52
2021/12/06 01:11:52;;;;;;;46.67;19.05;;;;;;;2.59;100.00;100340.94;687693;28;1253;-52
2021/12/06 01:12:14;;;;;;;42.00;18.53;;;;;;;2.61;100.00;100335.81;687247;28;3487;-53
2021/12/06 01:12:35;;;;;;;39.58;17.08;;;;;;;2.63;100.00;100336.72;686112;28;1456;-55
2021/12/06 01:12:56;;;;;;;39.40;16.83;;;;;;;2.65;100.00;100342.78;686692;28;4354;-53
2021/12/06 01:13:18;;;;;;;41.15;17.58;;;;;;;2.62;100.00;100338.44;686782;28;1422;-60
2021/12/06 01:13:39;;;;;;;41.15;17.70;;;;;;;2.57;100.00;100342.59;687191;28;900;-52
2021/12/06 01:14:00;;;;;;;39.67;16.90;;;;;;;2.54;100.00;100348.56;689584;28;1036;-53
2021/12/06 01:14:20;;;;;;;37.58;16.33;;;;;;;2.53;100.00;100348.53;688924;28;1159;-53
2021/12/06 01:14:41;;;;;;;34.90;15.03;;;;;;;2.51;100.00;100351.09;688682;28;1214;-54
2021/12/06 01:15:04;;;;;;;32.40;15.40;;;;;;;2.51;100.00;100350.22;689226;28;1962;-55
2021/12/06 01:15:26;;;;;;;34.55;15.25;;;;;;;2.49;100.00;100359.63;688802;28;1221;-53
2021/12/06 01:15:47;;;;;;;34.75;15.52;;;;;;;2.48;100.00;100356.19;688752;28;1322;-51
2021/12/06 01:16:08;;;;;;;35.35;15.98;;;;;;;2.47;100.00;100354.44;688862;28;4764;-53
2021/12/06 01:16:29;;;;;;;33.65;14.95;;;;;;;2.48;100.00;100357.88;687107;28;1457;-52
2021/12/06 01:16:50;;;;;;;33.17;15.18;;;;;;;2.49;100.00;100355.34;687650;28;1552;-51
2021/12/06 01:17:13;;;;;;;29.98;14.32;;;;;;;2.50;100.00;100358.78;689109;28;1947;-52
2021/12/06 01:17:34;;;;;;;25.90;13.63;;;;;;;2.51;100.00;100360.53;689963;28;1194;-51
2021/12/06 01:17:55;;;;;;;28.53;14.40;;;;;;;2.53;100.00;100361.44;691673;28;3418;-52
2021/12/06 01:18:18;;;;;;;32.53;14.82;;;;;;;2.53;100.00;100367.50;689343;28;1582;-55
2021/12/06 01:18:39;;;;;;;28.92;14.45;;;;;;;2.53;100.00;100364.03;687844;28;1335;-51
2021/12/06 01:19:02;;;;;;;32.92;14.32;;;;;;;2.53;100.00;100364.03;683847;28;4657;-54
2021/12/06 01:19:28;;;;;;;28.23;14.27;;;;;;;2.54;100.00;100365.78;683612;28;1233;-54
2021/12/06 01:19:50;;;;;;;27.52;13.98;;;;;;;2.56;100.00;100361.50;681082;29;1434;-52
2021/12/06 01:20:18;;;;;;;26.73;13.63;;;;;;;2.61;100.00;100361.63;681033;29;1643;-56
2021/12/06 01:20:49;;;;;;;25.13;13.82;;;;;;;2.64;100.00;100366.84;680311;28;3208;-51
2021/12/06 01:21:20;;;;;;;29.10;14.02;;;;;;;2.61;100.00;100369.38;681378;28;2040;-54
2021/12/06 01:21:51;;;;;;;26.55;13.13;;;;;;;2.54;100.00;100369.22;685282;28;1183;-51
2021/12/06 01:22:52;;;;;;;30.60;14.18;;;;;;;2.52;100.00;100367.44;691723;28;2006;-52
2021/12/06 01:23:15;;;;;;;26.90;14.25;;;;;;;2.54;100.00;100370.94;685631;28;2121;-51
2021/12/06 01:23:52;;;;;;;26.05;13.60;;;;;;;2.56;100.00;100369.25;682981;28;3592;-55
2021/12/06 01:24:16;;;;;;;21.98;12.15;;;;;;;2.58;100.00;100372.75;682267;28;1395;-52
2021/12/06 01:24:43;;;;;;;19.20;10.60;;;;;;;2.60;100.00;100372.78;681049;28;1327;-55
2021/12/06 01:25:14;;;;;;;17.05;10.05;;;;;;;2.64;100.00;100375.47;680806;28;4515;-55
2021/12/06 01:25:46;;;;;;;14.98;9.15;;;;;;;2.68;100.00;100376.41;684180;28;2001;-53
2021/12/06 01:26:41;;;;;;;13.93;8.23;;;;;;;2.74;100.00;100376.53;686710;28;3383;-52
2021/12/06 01:28:45;;;;;;;19.33;10.67;;;;;;;2.63;100.00;100384.06;687169;28;4408;-52
2021/12/06 01:30:15;;;;;;;21.60;10.60;;;;;;;2.55;100.00;100381.28;689801;28;1875;-55
2021/12/06 01:31:38;;;;;;;13.15;8.85;;;;;;;2.64;100.00;100392.66;686097;28;1228;-52
2021/12/06 01:32:15;;;;;;;14.90;9.57;;;;;;;2.63;100.00;100388.34;686753;28;3386;-56
2021/12/06 01:33:02;;;;;;;14.45;8.95;;;;;;;2.62;100.00;100395.22;684727;28;1562;-54
2021/12/06 01:39:08;;;;;;;11.95;8.43;;;;;;;2.65;100.00;100397.00;684986;28;4550;-53
2021/12/06 01:39:16;;;;;;;14.35;9.50;;;;;;;2.44;100.00;100405.06;691664;28;4022;-54
2021/12/06 01:39:37;;;;;;;15.27;9.48;;;;;;;2.42;100.00;100401.59;688486;28;1987;-53
2021/12/06 01:40:00;;;;;;;15.80;9.70;;;;;;;2.41;100.00;100403.31;689942;28;4604;-55
2021/12/06 01:40:22;;;;;;;15.32;9.80;;;;;;;2.40;100.00;100400.72;689567;28;1384;-52
2021/12/06 01:40:43;;;;;;;14.50;9.98;;;;;;;2.42;100.00;100401.59;686482;28;3373;-52
2021/12/06 01:41:04;;;;;;;15.75;10.00;;;;;;;2.41;100.00;100400.75;683761;28;1399;-53
2021/12/06 01:41:26;;;;;;;16.17;10.23;;;;;;;2.40;100.00;100405.88;682382;28;1346;-52
2021/12/06 01:41:59;;;;;;;16.33;10.45;;;;;;;2.42;100.00;100405.03;683266;28;1391;-53
2021/12/06 01:42:20;;;;;;;13.90;9.75;;;;;;;2.41;100.00;100400.75;685845;28;1249;-54
2021/12/06 01:42:43;;;;;;;14.40;9.68;;;;;;;2.41;100.00;100398.16;689354;28;1486;-52
2021/12/06 01:43:06;;;;;;;15.53;9.67;;;;;;;2.40;100.00;100399.00;691019;28;4422;-56
2021/12/06 01:43:26;;;;;;;14.95;9.68;;;;;;;2.41;100.00;100403.31;688160;28;1544;-52
2021/12/06 01:44:23;;;;;;;15.07;9.37;;;;;;;2.38;100.00;100400.66;688773;28;3494;-57
2021/12/06 01:45:10;;;;;;;13.95;9.50;;;;;;;2.37;100.00;100401.50;685721;28;1492;-55
2021/12/06 01:45:33;;;;;;;12.75;9.35;;;;;;;2.35;100.00;100406.63;691412;28;1393;-54
2021/12/06 01:45:53;;;;;;;14.45;9.50;;;;;;;2.35;100.00;100406.63;691113;28;1112;-55
2021/12/06 01:46:13;;;;;;;13.60;9.40;;;;;;;2.34;100.00;100397.13;690692;28;4438;-55
2021/12/06 01:47:08;;;;;;;13.52;9.20;;;;;;;2.34;100.00;100402.28;688853;28;1236;-53
2021/12/06 01:47:32;;;;;;;14.25;9.98;;;;;;;2.32;100.00;100405.66;690436;28;1325;-53
2021/12/06 01:47:54;;;;;;;15.40;9.80;;;;;;;2.29;100.00;100400.44;688652;28;1957;-54
2021/12/06 01:48:14;;;;;;;13.87;9.53;;;;;;;2.29;100.00;100410.75;686339;28;1405;-52
2021/12/06 01:48:35;;;;;;;14.95;9.82;;;;;;;2.28;100.00;100399.56;686245;28;1179;-52
2021/12/06 01:48:55;;;;;;;14.83;9.87;;;;;;;2.28;100.00;100404.72;685683;28;4622;-54
2021/12/06 01:49:19;;;;;;;14.68;9.80;;;;;;;2.29;100.00;100405.59;686861;28;2049;-54
2021/12/06 01:49:44;;;;;;;13.35;9.20;;;;;;;2.30;100.00;100403.06;687467;28;1220;-53
2021/12/06 01:50:07;;;;;;;13.88;9.63;;;;;;;2.31;100.00;100399.66;686142;28;1518;-53
2021/12/06 01:50:31;;;;;;;13.68;9.85;;;;;;;2.32;100.00;100398.78;685685;28;2200;-57
2021/12/06 01:50:51;;;;;;;13.23;9.57;;;;;;;2.33;100.00;100402.25;685931;28;1559;-54
2021/12/06 01:51:12;;;;;;;15.23;10.13;;;;;;;2.29;100.00;100400.44;683598;28;1234;-53
2021/12/06 01:51:33;;;;;;;14.35;10.07;;;;;;;2.30;100.00;100400.47;685506;28;1351;-56
2021/12/06 01:51:56;;;;;;;14.83;10.23;;;;;;;2.28;100.00;100394.38;686699;28;3497;-52
2021/12/06 01:52:22;;;;;;;15.55;10.07;;;;;;;2.28;100.00;100399.56;685885;28;4977;-53
2021/12/06 01:52:49;;;;;;;13.73;9.60;;;;;;;2.27;100.00;100403.00;681716;28;1103;-52
2021/12/06 01:53:10;;;;;;;14.48;9.95;;;;;;;2.28;100.00;100398.69;682808;28;1029;-52
2021/12/06 01:53:30;;;;;;;15.00;9.90;;;;;;;2.27;100.00;100400.41;685751;28;1111;-55
2021/12/06 01:53:51;;;;;;;15.13;9.95;;;;;;;2.28;100.00;100401.25;686641;28;1191;-52
2021/12/06 01:54:14;;;;;;;14.40;10.13;;;;;;;2.27;100.00;100400.41;688567;28;1090;-53
2021/12/06 01:54:36;;;;;;;15.90;10.25;;;;;;;2.27;100.00;100395.25;687708;28;3303;-53
2021/12/06 01:54:58;;;;;;;15.38;10.02;;;;;;;2.26;100.00;100401.22;684962;28;4661;-54
2021/12/06 01:55:23;;;;;;;15.88;10.20;;;;;;;2.24;100.00;100397.72;683063;28;953;-53
2021/12/06 01:55:43;;;;;;;15.20;10.52;;;;;;;2.22;100.00;100399.41;685162;28;1445;-54
2021/12/06 01:56:05;;;;;;;16.17;10.80;;;;;;;2.20;100.00;100396.81;686112;28;1367;-52
2021/12/06 01:56:26;;;;;;;16.55;10.82;;;;;;;2.21;100.00;100401.09;686262;28;1255;-59
2021/12/06 01:56:49;;;;;;;17.48;10.82;;;;;;;2.23;100.00;100398.59;688560;28;2046;-53
2021/12/06 01:57:10;;;;;;;15.95;10.95;;;;;;;2.23;100.00;100396.00;686134;28;1969;-52
2021/12/06 01:57:32;;;;;;;14.43;10.18;;;;;;;2.25;100.00;100398.63;688626;28;3157;-53
2021/12/06 01:57:54;;;;;;;16.98;10.48;;;;;;;2.26;100.00;100400.34;688904;28;1597;-53
2021/12/06 01:58:15;;;;;;;15.73;10.10;;;;;;;2.30;100.00;100402.16;688771;28;4757;-53